Snook, Texas
Current Conditions -  °F | °C
As of 2:53 PM on Sunday 23 Nov 2014 (Local Time) from KCLL Reporting Station
Clear Clear  
Wind Chill: 79°   Ceiling: Unl
Heat Index: 79°   Visibility: 10mi
Dew Point: 49°   Wind: 15mph
Humidity: 35%   Direction: 230°SW
Pressure: 29.5"   Gusts: 22mph
Location:  30.49°N, 96.46°W
Report Text: KCLL 232053Z 23013G19KT 10SM CLR 26/09 A2950 RMK AO2 SLP984 T02610094 56028 $
Loading
Personal Weather Stations






























Interactive Weather Map New forecast layout! Learn more

10-Day Weather Forecast

Advertisements
Track Severe Weather on mobile